Wilton, Minnesota
Current Conditions -  °F | °C
As of 8:53 PM on Sunday 23 Nov 2014 (Local Time) from KBJI Reporting Station
Overcast Overcast  
Wind Chill: 13°   Ceiling: 300
Heat Index: 25°   Visibility: 7mi
Dew Point: 24°   Wind: 15mph
Humidity: 95%   Direction: 300°WNW
Pressure: 29.43"   Gusts: NA
Location:  47.5°N, 95°W
Report Text: KBJI 240253Z AUTO 30013KT 7SM OVC003 M04/M04 A2943 RMK AO2 T10381045
Loading
Personal Weather Stations






























Interactive Weather Map New forecast layout! Learn more

10-Day Weather Forecast

Advertisements
Track Severe Weather on mobile